Terminal Aerodrome Forecast
Issued by NWS Sterling, VA

Current Version | Previous Version | Graphics & Text | Print | Product List | Glossary On
Versions: 1 2 3 4 5 6 7 8 9 10 11 12 13 14 15 16 17
000
FTUS41 KLWX 222324
TAFMRB
TAF
KMRB 222324Z 2300/2324 32007KT P6SM OVC060
     FM230500 32004KT 3SM BR OVC020
     FM231300 VRB03KT 5SM BR BKN040
     FM231700 32006KT P6SM -SHRA SCT035 BKN045=

USA.gov is the U.S. government's official web portal to all federal, state and local government web resources and services.